Time;durP1;ratioP1;P1;durP2;ratioP2;P2;SDS_P1;SDS_P2;PMS_P1;PMS_P2;Temp;Humidity;BMP_temperature;BMP_pressure;BME280_temperature;BME280_humidity;BME280_pressure;Samples;Min_cycle;Max_cycle;Signal;HPM_P1;HPM_P2
2022/04/10 00:00:43;;;;;;;13.68;2.78;;;4.80;99.90;;;;;;4996005;28;20084;-52
2022/04/10 00:03:10;;;;;;;19.58;3.20;;;4.70;99.90;;;;;;5018674;28;20505;-52
2022/04/10 00:05:35;;;;;;;13.93;3.17;;;4.80;99.90;;;;;;5033583;28;20033;-56
2022/04/10 00:08:01;;;;;;;15.27;2.83;;;4.70;99.90;;;;;;4997636;28;20099;-54
2022/04/10 00:10:27;;;;;;;16.50;2.75;;;4.70;99.90;;;;;;5009774;28;20048;-55
2022/04/10 00:12:53;;;;;;;13.30;2.70;;;4.70;99.90;;;;;;5003158;28;20088;-58
2022/04/10 00:15:19;;;;;;;12.45;2.50;;;4.70;99.90;;;;;;5012118;28;20128;-55
2022/04/10 00:17:45;;;;;;;18.17;3.03;;;4.70;99.90;;;;;;5014158;28;20107;-54
2022/04/10 00:20:11;;;;;;;17.88;2.55;;;4.70;99.90;;;;;;4995883;28;20163;-54
2022/04/10 00:22:42;;;;;;;12.43;3.10;;;4.70;99.90;;;;;;5009544;28;20353;-54
2022/04/10 00:25:09;;;;;;;12.60;2.05;;;4.60;99.90;;;;;;4997449;28;20045;-55
2022/04/10 00:27:35;;;;;;;18.70;3.38;;;4.50;99.90;;;;;;4995922;28;20123;-54
2022/04/10 00:30:01;;;;;;;10.18;2.70;;;4.50;99.90;;;;;;4997081;28;20475;-56
2022/04/10 00:32:27;;;;;;;16.67;3.40;;;4.50;99.90;;;;;;5010956;28;20055;-54
2022/04/10 00:34:53;;;;;;;13.18;2.25;;;4.40;99.90;;;;;;5015032;28;20040;-55
2022/04/10 00:37:19;;;;;;;14.35;3.50;;;4.40;99.90;;;;;;5012941;28;20551;-55
2022/04/10 00:39:45;;;;;;;11.80;2.72;;;4.40;99.90;;;;;;5007110;28;20045;-55
2022/04/10 00:42:11;;;;;;;11.80;2.70;;;4.40;99.90;;;;;;5009250;28;20055;-55
2022/04/10 00:44:36;;;;;;;12.10;2.65;;;4.40;99.90;;;;;;5013601;28;20053;-56
2022/04/10 00:47:03;;;;;;;14.25;3.92;;;4.40;99.90;;;;;;5010768;28;20151;-53
2022/04/10 00:49:29;;;;;;;12.75;2.78;;;4.30;99.90;;;;;;5011934;28;20060;-54
2022/04/10 00:51:56;;;;;;;15.23;2.95;;;4.30;99.90;;;;;;5012027;28;20072;-57
2022/04/10 00:54:26;;;;;;;13.30;3.03;;;4.30;99.90;;;;;;5026165;28;20124;-56
2022/04/10 00:56:53;;;;;;;14.15;2.72;;;4.30;99.90;;;;;;5011042;28;20042;-57
2022/04/10 00:59:19;;;;;;;15.02;3.05;;;4.30;99.90;;;;;;5006081;28;20254;-56
2022/04/10 01:01:45;;;;;;;14.52;3.03;;;4.30;99.90;;;;;;5008493;28;20043;-56
2022/04/10 01:04:16;;;;;;;15.18;3.30;;;4.30;99.90;;;;;;4990943;28;20678;-54
2022/04/10 01:06:50;;;;;;;15.25;3.03;;;4.30;99.90;;;;;;4995251;28;20048;-58
2022/04/10 01:09:17;;;;;;;12.30;2.92;;;4.30;99.90;;;;;;5009196;28;20519;-55
2022/04/10 01:11:43;;;;;;;13.00;2.78;;;4.30;99.90;;;;;;5028399;28;20032;-55
2022/04/10 01:14:09;;;;;;;15.02;4.07;;;4.30;99.90;;;;;;5007330;28;20041;-57
2022/04/10 01:16:36;;;;;;;15.80;3.50;;;4.30;99.90;;;;;;4994794;28;20040;-56
2022/04/10 01:19:03;;;;;;;12.15;2.40;;;4.30;99.90;;;;;;5003003;28;20041;-57
2022/04/10 01:21:33;;;;;;;12.23;2.38;;;4.30;99.90;;;;;;5015820;28;20041;-55
2022/04/10 01:23:59;;;;;;;13.93;2.60;;;4.30;99.90;;;;;;5010463;28;20117;-57
2022/04/10 01:26:27;;;;;;;12.52;2.33;;;4.30;99.90;;;;;;5002435;28;20080;-54
2022/04/10 01:29:00;;;;;;;16.50;3.63;;;4.30;99.90;;;;;;5006931;28;20076;-57
2022/04/10 01:31:28;;;;;;;13.07;2.90;;;4.30;99.90;;;;;;5003869;28;20090;-56
2022/04/10 01:34:03;;;;;;;8.18;2.25;;;4.20;99.90;;;;;;5010660;28;20065;-53
2022/04/10 01:36:30;;;;;;;10.63;2.17;;;4.20;99.90;;;;;;4999590;28;20589;-56
2022/04/10 01:39:00;;;;;;;13.85;3.50;;;4.20;99.90;;;;;;5009606;28;20643;-56
2022/04/10 01:41:27;;;;;;;11.75;2.85;;;4.20;99.90;;;;;;5010595;28;20052;-54
2022/04/10 01:43:55;;;;;;;15.48;2.35;;;4.30;99.90;;;;;;5026383;28;20632;-56
2022/04/10 01:46:25;;;;;;;10.07;2.10;;;4.20;99.90;;;;;;5017395;28;20033;-56
2022/04/10 01:48:51;;;;;;;13.35;2.40;;;4.20;99.90;;;;;;5024311;28;20703;-57
2022/04/10 01:51:17;;;;;;;8.52;1.90;;;4.20;99.90;;;;;;5032274;28;20048;-55
2022/04/10 01:53:43;;;;;;;12.32;2.13;;;4.20;99.90;;;;;;5009210;28;20040;-58
2022/04/10 01:56:09;;;;;;;15.73;3.65;;;4.20;99.90;;;;;;4993727;28;20045;-57
2022/04/10 01:58:38;;;;;;;12.65;2.50;;;4.20;99.90;;;;;;5010311;28;20047;-52
2022/04/10 02:01:06;;;;;;;10.48;2.75;;;4.20;99.90;;;;;;5008539;28;20045;-57
2022/04/10 02:03:32;;;;;;;12.38;2.53;;;4.20;99.90;;;;;;5016316;28;20159;-55
2022/04/10 02:06:00;;;;;;;12.18;3.20;;;4.30;99.90;;;;;;5026013;28;20516;-56
2022/04/10 02:08:26;;;;;;;9.98;2.15;;;4.50;99.90;;;;;;5005537;28;20068;-57
2022/04/10 02:10:52;;;;;;;9.68;2.03;;;4.60;99.90;;;;;;5016223;28;20115;-55
2022/04/10 02:13:20;;;;;;;8.40;2.30;;;4.60;99.90;;;;;;5032572;28;22045;-55
2022/04/10 02:15:47;;;;;;;9.50;1.23;;;4.50;99.90;;;;;;5015374;28;20386;-55
2022/04/10 02:18:12;;;;;;;6.13;1.27;;;4.50;99.90;;;;;;5012435;28;20056;-57
2022/04/10 02:20:38;;;;;;;3.85;1.15;;;4.40;99.90;;;;;;5017702;28;20040;-55
2022/04/10 02:23:04;;;;;;;8.30;2.67;;;4.40;99.90;;;;;;5030866;28;20042;-55
2022/04/10 02:25:30;;;;;;;12.73;2.30;;;4.40;99.90;;;;;;5019537;28;20395;-56
2022/04/10 02:27:56;;;;;;;6.43;1.23;;;4.40;99.90;;;;;;5036590;28;20040;-58
2022/04/10 02:30:22;;;;;;;4.60;1.30;;;4.40;99.90;;;;;;5018200;28;20100;-54
2022/04/10 02:32:48;;;;;;;8.13;1.83;;;4.40;99.90;;;;;;4999920;28;20033;-54
2022/04/10 02:35:14;;;;;;;4.90;1.17;;;4.40;99.90;;;;;;5011491;28;20057;-57
2022/04/10 02:37:40;;;;;;;5.05;1.27;;;4.50;99.90;;;;;;5013810;28;20132;-52
2022/04/10 02:40:07;;;;;;;7.68;2.35;;;4.40;99.90;;;;;;5018995;28;20179;-55
2022/04/10 02:42:34;;;;;;;8.13;1.83;;;4.40;99.90;;;;;;5019440;28;20079;-54
2022/04/10 02:45:01;;;;;;;5.97;1.20;;;4.40;99.90;;;;;;5039304;28;20120;-58
2022/04/10 02:47:26;;;;;;;7.88;1.77;;;4.40;99.90;;;;;;5015881;28;21280;-54
2022/04/10 02:49:52;;;;;;;7.57;1.40;;;4.40;99.90;;;;;;5002919;28;20037;-53
2022/04/10 02:52:18;;;;;;;5.93;1.33;;;4.40;99.90;;;;;;5002872;28;20449;-58
2022/04/10 02:54:44;;;;;;;4.38;1.10;;;4.40;99.90;;;;;;4998410;28;20041;-57
2022/04/10 02:57:10;;;;;;;5.28;0.93;;;4.30;99.90;;;;;;5008469;28;20052;-57
2022/04/10 02:59:36;;;;;;;4.55;0.90;;;4.30;99.90;;;;;;4999242;28;20787;-57
2022/04/10 03:02:02;;;;;;;1.75;0.77;;;4.10;99.90;;;;;;5035499;28;20044;-57
2022/04/10 03:04:28;;;;;;;2.95;1.35;;;4.10;99.90;;;;;;4995226;28;20037;-56
2022/04/10 03:06:54;;;;;;;2.78;0.60;;;4.10;99.90;;;;;;5012710;28;20099;-53
2022/04/10 03:09:19;;;;;;;3.53;0.88;;;4.10;99.90;;;;;;5014021;28;20041;-54
2022/04/10 03:11:45;;;;;;;1.23;0.40;;;4.10;99.90;;;;;;4992089;28;20497;-54
2022/04/10 03:14:11;;;;;;;4.22;1.10;;;4.10;99.90;;;;;;5016158;28;20047;-53
2022/04/10 03:16:37;;;;;;;3.17;0.75;;;4.10;99.90;;;;;;4997227;28;20502;-57
2022/04/10 03:19:03;;;;;;;6.85;0.90;;;4.10;99.90;;;;;;5014994;28;20067;-53
2022/04/10 03:21:29;;;;;;;3.53;1.00;;;4.00;99.90;;;;;;5016699;28;20233;-56
2022/04/10 03:23:55;;;;;;;3.22;1.02;;;4.00;99.90;;;;;;4999296;28;20803;-53
2022/04/10 03:26:20;;;;;;;4.38;1.00;;;3.90;99.90;;;;;;5013286;28;20037;-56
2022/04/10 03:28:46;;;;;;;6.72;1.00;;;3.90;99.90;;;;;;5014775;28;20048;-55
2022/04/10 03:31:12;;;;;;;6.10;1.02;;;3.80;99.90;;;;;;5014861;28;20138;-53
2022/04/10 03:33:37;;;;;;;5.88;1.02;;;3.80;99.90;;;;;;5000872;28;20397;-54
2022/04/10 03:36:04;;;;;;;4.72;1.00;;;3.70;99.90;;;;;;5014445;28;20040;-56
2022/04/10 03:38:29;;;;;;;6.20;1.08;;;3.70;99.90;;;;;;5012180;28;20049;-52
2022/04/10 03:40:55;;;;;;;6.57;1.00;;;3.80;99.90;;;;;;5002740;28;20056;-56
2022/04/10 03:43:21;;;;;;;5.07;1.38;;;3.70;99.90;;;;;;5013449;28;20092;-54
2022/04/10 03:45:46;;;;;;;5.30;1.30;;;3.70;99.90;;;;;;5000178;28;20049;-56
2022/04/10 03:48:13;;;;;;;4.47;1.20;;;3.70;99.90;;;;;;5014524;28;20052;-52
2022/04/10 03:50:40;;;;;;;6.15;1.25;;;3.70;99.90;;;;;;5029992;28;20033;-56
2022/04/10 03:53:05;;;;;;;5.63;1.15;;;3.60;99.90;;;;;;4986174;28;20041;-55
2022/04/10 03:55:35;;;;;;;12.48;1.80;;;3.60;99.90;;;;;;5031313;28;20045;-56
2022/04/10 03:58:00;;;;;;;13.77;2.95;;;3.60;99.90;;;;;;5016755;28;20036;-56
2022/04/10 04:00:27;;;;;;;4.70;1.30;;;3.60;99.90;;;;;;5015342;28;20041;-54
2022/04/10 04:02:52;;;;;;;7.97;1.48;;;3.60;99.90;;;;;;5028738;28;20622;-56
2022/04/10 04:05:18;;;;;;;6.57;1.33;;;3.60;99.90;;;;;;5033081;28;20068;-57
2022/04/10 04:07:44;;;;;;;7.13;1.85;;;3.60;99.90;;;;;;5035775;28;20056;-59
2022/04/10 04:10:10;;;;;;;10.68;2.10;;;3.60;99.90;;;;;;5000902;28;20052;-55
2022/04/10 04:12:36;;;;;;;7.63;1.90;;;3.60;99.90;;;;;;5013391;28;20033;-56
2022/04/10 04:15:03;;;;;;;9.38;2.28;;;3.60;99.90;;;;;;5015136;28;20041;-54
2022/04/10 04:17:29;;;;;;;7.57;1.55;;;3.60;99.90;;;;;;5017267;28;20110;-56
2022/04/10 04:19:55;;;;;;;13.25;2.50;;;3.70;99.90;;;;;;5012049;28;20053;-58
2022/04/10 04:22:21;;;;;;;5.72;1.60;;;3.70;99.90;;;;;;5007555;28;20049;-56
2022/04/10 04:24:47;;;;;;;10.48;2.08;;;3.70;99.90;;;;;;5007682;28;20122;-58
2022/04/10 04:27:14;;;;;;;11.30;2.25;;;3.70;99.90;;;;;;4996551;28;20044;-57
2022/04/10 04:29:39;;;;;;;11.63;1.98;;;3.70;99.90;;;;;;5010035;28;20691;-57
2022/04/10 04:32:05;;;;;;;9.93;2.00;;;3.80;99.90;;;;;;4998075;28;20033;-56
2022/04/10 04:34:31;;;;;;;7.57;1.50;;;3.80;99.90;;;;;;5009005;28;20040;-56
2022/04/10 04:36:57;;;;;;;8.02;1.50;;;3.80;99.90;;;;;;5009956;28;20048;-55
2022/04/10 04:39:23;;;;;;;8.80;1.98;;;3.80;99.90;;;;;;5012041;28;20048;-57
2022/04/10 04:41:49;;;;;;;6.97;1.50;;;3.80;99.90;;;;;;5034340;28;20032;-56
2022/04/10 04:44:14;;;;;;;8.30;1.50;;;3.90;99.90;;;;;;5000875;28;20046;-55
2022/04/10 04:46:40;;;;;;;9.90;3.17;;;3.80;99.90;;;;;;5008567;28;20531;-53
2022/04/10 04:49:06;;;;;;;9.88;2.00;;;4.00;99.90;;;;;;4997936;28;20152;-57
2022/04/10 04:51:36;;;;;;;8.52;1.83;;;3.80;99.90;;;;;;5014809;28;20041;-55
2022/04/10 04:54:03;;;;;;;13.10;3.78;;;3.80;99.90;;;;;;5015887;28;20076;-56
2022/04/10 04:56:29;;;;;;;10.50;2.03;;;3.80;99.90;;;;;;5014556;28;20164;-57
2022/04/10 04:58:54;;;;;;;9.40;1.73;;;3.80;99.90;;;;;;5012837;28;20616;-55
2022/04/10 05:01:20;;;;;;;5.13;1.60;;;3.90;99.90;;;;;;5011458;28;20128;-56
2022/04/10 05:03:46;;;;;;;10.88;3.13;;;3.90;99.90;;;;;;5010023;28;20418;-55
2022/04/10 05:06:12;;;;;;;5.75;1.80;;;3.90;99.90;;;;;;5012063;28;20170;-56
2022/04/10 05:08:39;;;;;;;7.50;1.50;;;3.90;99.90;;;;;;5030930;28;20037;-58
2022/04/10 05:11:06;;;;;;;5.80;1.20;;;3.90;99.90;;;;;;5035114;28;20486;-57
2022/04/10 05:13:32;;;;;;;6.47;1.45;;;4.00;99.90;;;;;;5032434;23;20060;-64
2022/04/10 05:15:57;;;;;;;7.68;1.40;;;4.00;99.90;;;;;;5001706;28;20052;-64
2022/04/10 05:18:23;;;;;;;8.70;1.67;;;4.10;99.90;;;;;;5027299;28;20045;-64
2022/04/10 05:20:49;;;;;;;10.50;1.90;;;4.10;99.90;;;;;;5020437;28;20044;-64
2022/04/10 05:23:16;;;;;;;9.25;1.75;;;4.10;99.90;;;;;;5012956;28;20060;-63
2022/04/10 05:25:42;;;;;;;8.35;2.05;;;4.20;99.90;;;;;;4999663;28;20051;-64
2022/04/10 05:28:08;;;;;;;9.93;1.83;;;4.20;99.90;;;;;;5018683;28;20094;-64
2022/04/10 05:30:34;;;;;;;11.75;2.20;;;4.20;99.90;;;;;;5013750;28;20040;-64
2022/04/10 05:33:00;;;;;;;8.63;1.48;;;4.20;99.90;;;;;;5015246;28;20037;-64
2022/04/10 05:35:25;;;;;;;9.13;1.27;;;4.20;99.90;;;;;;5017850;28;20405;-64
2022/04/10 05:37:52;;;;;;;8.50;1.40;;;4.20;99.90;;;;;;5031537;28;20045;-64
2022/04/10 05:40:17;;;;;;;7.75;1.50;;;4.30;99.90;;;;;;5018157;28;20058;-64
2022/04/10 05:42:44;;;;;;;6.50;1.27;;;4.30;99.90;;;;;;5017021;28;20199;-64
2022/04/10 05:45:11;;;;;;;6.55;1.33;;;4.30;99.90;;;;;;5022820;28;20075;-64
2022/04/10 05:47:39;;;;;;;3.60;1.30;;;4.30;99.90;;;;;;5004321;28;20494;-64
2022/04/10 05:50:06;;;;;;;5.28;0.90;;;4.40;99.90;;;;;;5003717;28;20119;-64
2022/04/10 05:52:40;;;;;;;2.90;1.00;;;4.40;99.90;;;;;;5016227;28;20048;-64
2022/04/10 05:55:07;;;;;;;5.50;1.38;;;4.40;99.90;;;;;;5017324;28;20094;-64
2022/04/10 05:57:34;;;;;;;3.28;1.00;;;4.40;99.90;;;;;;5012586;28;20045;-64
2022/04/10 05:59:59;;;;;;;4.00;1.10;;;4.50;99.90;;;;;;5036375;28;20110;-64
2022/04/10 06:02:25;;;;;;;5.50;1.33;;;4.50;99.90;;;;;;5004324;28;20045;-63
2022/04/10 06:04:51;;;;;;;5.68;1.33;;;4.60;99.90;;;;;;5025648;28;20142;-64
2022/04/10 06:07:17;;;;;;;4.57;1.35;;;4.50;99.90;;;;;;4997090;28;20505;-64
2022/04/10 06:09:43;;;;;;;6.50;1.60;;;4.70;99.90;;;;;;5027189;28;20037;-64
2022/04/10 06:12:09;;;;;;;10.23;2.15;;;4.70;99.90;;;;;;5047349;28;20052;-64
2022/04/10 06:14:35;;;;;;;9.82;1.80;;;4.80;99.90;;;;;;5001666;28;20374;-64
2022/04/10 06:17:00;;;;;;;8.98;2.05;;;4.80;99.90;;;;;;5022778;28;20136;-64
2022/04/10 06:19:27;;;;;;;4.45;1.60;;;4.90;99.90;;;;;;5006160;28;20493;-64
2022/04/10 06:21:53;;;;;;;10.57;2.00;;;4.90;99.90;;;;;;5004181;28;20084;-63
2022/04/10 06:24:21;;;;;;;6.78;1.65;;;5.00;99.90;;;;;;5038932;28;20033;-63
2022/04/10 06:26:49;;;;;;;9.60;1.98;;;5.00;99.90;;;;;;5026221;28;20060;-64
2022/04/10 06:29:17;;;;;;;6.45;1.63;;;5.00;99.90;;;;;;5034943;28;20101;-63
2022/04/10 06:31:43;;;;;;;10.23;1.90;;;5.10;99.90;;;;;;5036605;28;20112;-63
2022/04/10 06:34:09;;;;;;;8.88;1.90;;;5.20;99.90;;;;;;5012899;28;20047;-64
2022/04/10 06:36:35;;;;;;;7.88;1.75;;;5.30;99.90;;;;;;5016682;28;20041;-64
2022/04/10 06:39:01;;;;;;;5.97;1.77;;;5.20;99.90;;;;;;4998360;28;20128;-64
2022/04/10 06:41:26;;;;;;;9.68;2.50;;;5.30;99.90;;;;;;5002742;28;20100;-64
2022/04/10 06:43:52;;;;;;;10.20;1.77;;;5.40;99.90;;;;;;5011529;28;20488;-64
2022/04/10 06:46:18;;;;;;;6.53;1.65;;;5.40;99.90;;;;;;4981713;28;20072;-64
2022/04/10 06:48:43;;;;;;;13.45;2.20;;;5.50;99.90;;;;;;5032255;28;20045;-64
2022/04/10 06:51:09;;;;;;;9.65;2.15;;;5.50;99.90;;;;;;5013801;28;20045;-64
2022/04/10 06:53:35;;;;;;;8.43;1.95;;;5.60;99.90;;;;;;5031007;28;20045;-64
2022/04/10 06:56:00;;;;;;;13.35;2.63;;;5.70;99.90;;;;;;5014438;28;20037;-64
2022/04/10 06:58:26;;;;;;;11.05;2.40;;;5.90;99.90;;;;;;5001753;28;20048;-62
2022/04/10 07:00:52;;;;;;;9.40;1.80;;;6.00;99.90;;;;;;4998717;28;20135;-63
2022/04/10 07:03:18;;;;;;;6.45;1.92;;;6.10;99.90;;;;;;5013376;28;20049;-62
2022/04/10 07:05:44;;;;;;;10.65;1.90;;;6.30;99.90;;;;;;5010550;28;20425;-64
2022/04/10 07:08:10;;;;;;;11.57;1.90;;;6.50;99.90;;;;;;5002165;28;20086;-63
2022/04/10 07:10:37;;;;;;;11.05;2.00;;;6.60;99.90;;;;;;5037113;28;20048;-63
2022/04/10 07:13:03;;;;;;;9.63;2.72;;;6.70;99.90;;;;;;5014917;28;20044;-63
2022/04/10 07:15:29;;;;;;;9.65;1.90;;;6.90;99.90;;;;;;5024016;28;20052;-62
2022/04/10 07:17:56;;;;;;;8.43;2.00;;;7.10;99.90;;;;;;5016993;28;20057;-67
2022/04/10 07:20:25;;;;;;;10.13;2.08;;;7.20;99.90;;;;;;5007053;28;20043;-65
2022/04/10 07:25:36;;;;;;;7.80;2.20;;;7.40;99.90;;;;;;5040631;28;20057;-62
2022/04/10 07:28:04;;;;;;;12.85;3.22;;;7.50;98.70;;;;;;5042115;28;20133;-67
2022/04/10 07:30:30;;;;;;;11.68;2.70;;;7.60;99.60;;;;;;5037682;28;20385;-65
2022/04/10 07:32:57;;;;;;;11.35;2.20;;;7.60;99.20;;;;;;5023604;28;20045;-62
2022/04/10 07:35:26;;;;;;;10.90;2.65;;;7.50;99.50;;;;;;5037850;28;20464;-62
2022/04/10 07:37:52;;;;;;;9.50;2.50;;;7.40;99.30;;;;;;5017536;28;20104;-63
2022/04/10 07:40:21;;;;;;;8.75;1.80;;;7.20;99.80;;;;;;4996735;28;20116;-62
2022/04/10 07:42:47;;;;;;;11.43;2.63;;;7.00;99.20;;;;;;5027354;28;21053;-67
2022/04/10 07:47:59;;;;;;;9.85;2.67;;;7.30;99.50;;;;;;5022589;28;20045;-63
2022/04/10 07:50:25;;;;;;;9.40;2.15;;;7.50;98.10;;;;;;5006986;28;20121;-63
2022/04/10 07:52:51;;;;;;;9.05;2.00;;;7.70;98.00;;;;;;5017248;28;20040;-68
2022/04/10 07:55:17;;;;;;;9.98;2.63;;;7.70;97.80;;;;;;5020116;28;20051;-65
2022/04/10 07:57:43;;;;;;;8.95;1.80;;;7.50;97.20;;;;;;5019124;28;20041;-62
2022/04/10 08:00:09;;;;;;;9.73;1.65;;;7.50;97.50;;;;;;5022309;28;20049;-62
2022/04/10 08:02:37;;;;;;;15.32;1.90;;;7.40;96.60;;;;;;5021161;28;20068;-62
2022/04/10 08:05:03;;;;;;;10.20;1.80;;;7.40;97.30;;;;;;5018461;28;20047;-61
2022/04/10 08:07:29;;;;;;;9.73;2.05;;;7.60;96.70;;;;;;5011619;28;20114;-69
2022/04/10 08:09:55;;;;;;;10.13;1.92;;;7.70;95.90;;;;;;5014413;28;20038;-64
2022/04/10 08:12:20;;;;;;;8.95;2.33;;;7.80;94.70;;;;;;5008820;28;20053;-64
2022/04/10 08:14:48;;;;;;;11.43;2.00;;;7.80;95.20;;;;;;4994369;28;20037;-64
2022/04/10 08:17:14;;;;;;;6.65;1.40;;;7.90;95.50;;;;;;4996885;28;20056;-63
2022/04/10 08:19:40;;;;;;;12.80;2.00;;;7.90;95.10;;;;;;5007308;28;20114;-64
2022/04/10 08:22:09;;;;;;;6.03;1.80;;;8.00;94.90;;;;;;4995456;28;20401;-69
2022/04/10 08:24:35;;;;;;;12.07;2.03;;;8.10;94.10;;;;;;4995146;28;20250;-66
2022/04/10 08:27:01;;;;;;;10.32;1.73;;;8.00;93.80;;;;;;4994450;28;20045;-63
2022/04/10 08:29:26;;;;;;;17.15;4.28;;;8.10;94.10;;;;;;5012200;28;20033;-63
2022/04/10 08:31:52;;;;;;;16.85;4.28;;;8.10;93.80;;;;;;5010803;28;20037;-64
2022/04/10 08:34:18;;;;;;;11.85;2.28;;;8.10;94.40;;;;;;5030138;28;20047;-63
2022/04/10 08:36:47;;;;;;;11.43;2.80;;;8.20;94.90;;;;;;5011289;28;20099;-68
2022/04/10 08:39:12;;;;;;;12.70;3.05;;;8.40;95.00;;;;;;5027971;28;20068;-66
2022/04/10 08:41:38;;;;;;;12.20;3.78;;;8.40;94.60;;;;;;4999804;28;20065;-62
2022/04/10 08:44:05;;;;;;;10.57;2.95;;;8.30;95.00;;;;;;5038723;28;20049;-64
2022/04/10 08:46:33;;;;;;;15.60;2.88;;;7.90;95.80;;;;;;5035206;28;20561;-62
2022/04/10 08:48:59;;;;;;;10.88;2.28;;;7.70;96.80;;;;;;4991846;28;20049;-62
2022/04/10 08:51:28;;;;;;;7.38;2.03;;;7.70;97.10;;;;;;5014295;28;20045;-69
2022/04/10 08:53:55;;;;;;;7.00;1.98;;;7.60;96.20;;;;;;4998893;28;20116;-65
2022/04/10 08:56:22;;;;;;;9.73;1.73;;;7.60;96.70;;;;;;5011018;28;20048;-62
2022/04/10 08:58:51;;;;;;;10.50;1.70;;;7.60;96.40;;;;;;5008478;28;20049;-63
2022/04/10 09:01:19;;;;;;;14.52;4.30;;;7.70;97.10;;;;;;5013603;28;20044;-63
2022/04/10 09:03:49;;;;;;;14.95;4.80;;;7.90;96.40;;;;;;5013132;28;20056;-68
2022/04/10 09:06:15;;;;;;;16.17;3.08;;;8.10;95.70;;;;;;5011241;28;20049;-66
2022/04/10 09:08:41;;;;;;;9.18;2.90;;;8.00;93.80;;;;;;5030160;28;20048;-64
2022/04/10 09:11:08;;;;;;;7.00;1.65;;;7.80;93.20;;;;;;5023580;28;20512;-63
2022/04/10 09:13:47;;;;;;;5.78;1.80;;;7.90;94.40;;;;;;5023178;28;20122;-63
2022/04/10 09:16:23;;;;;;;6.93;2.10;;;8.20;94.60;;;;;;5021118;28;20044;-68
2022/04/10 09:18:49;;;;;;;10.55;2.10;;;8.20;92.80;;;;;;5022426;28;20049;-63
2022/04/10 09:21:17;;;;;;;8.98;1.65;;;8.40;92.60;;;;;;5022753;28;20068;-63
2022/04/10 09:23:46;;;;;;;9.27;1.90;;;8.80;93.50;;;;;;5016232;28;20134;-63
2022/04/10 09:26:15;;;;;;;7.50;1.73;;;8.90;93.30;;;;;;5019090;28;20041;-62
2022/04/10 09:28:46;;;;;;;13.05;2.30;;;8.60;93.40;;;;;;5006164;28;20565;-69
2022/04/10 09:31:29;;;;;;;10.27;3.08;;;8.70;93.20;;;;;;5017782;28;20115;-65
2022/04/10 09:33:56;;;;;;;9.20;1.95;;;8.90;93.50;;;;;;5036016;28;20033;-63
2022/04/10 09:36:40;;;;;;;8.35;1.90;;;9.00;92.60;;;;;;5003569;28;20032;-63
2022/04/10 09:39:12;;;;;;;8.82;1.90;;;8.70;92.00;;;;;;5019851;28;20048;-63
2022/04/10 09:41:39;;;;;;;9.00;2.13;;;8.60;91.40;;;;;;5026892;28;20033;-63
2022/04/10 09:44:20;;;;;;;8.63;1.63;;;8.30;90.30;;;;;;5018134;28;20044;-63
2022/04/10 09:46:57;;;;;;;11.27;2.15;;;8.40;91.00;;;;;;5022715;28;20045;-68
2022/04/10 09:49:23;;;;;;;9.60;1.75;;;8.60;91.60;;;;;;5013299;28;20099;-63
2022/04/10 09:52:19;;;;;;;7.30;1.63;;;8.60;91.60;;;;;;5035463;28;20478;-62
2022/04/10 09:54:50;;;;;;;12.25;1.95;;;8.50;91.30;;;;;;5001994;28;20052;-64
2022/04/10 09:57:18;;;;;;;11.55;2.60;;;8.40;92.30;;;;;;5038411;28;20260;-63
2022/04/10 09:59:49;;;;;;;8.77;1.77;;;8.30;92.70;;;;;;5016913;28;20154;-63
2022/04/10 10:02:16;;;;;;;8.27;1.70;;;8.20;93.30;;;;;;5018132;28;20393;-63
2022/04/10 10:04:44;;;;;;;6.25;1.58;;;8.10;93.60;;;;;;5018807;28;20068;-69
2022/04/10 10:07:20;;;;;;;9.45;1.60;;;8.20;93.90;;;;;;5036522;28;20041;-64
2022/04/10 10:09:48;;;;;;;9.63;2.35;;;8.10;93.50;;;;;;5037699;28;20037;-64
2022/04/10 10:12:15;;;;;;;9.50;1.67;;;8.30;93.50;;;;;;5021610;28;20045;-63
2022/04/10 10:14:41;;;;;;;6.47;1.90;;;8.60;92.90;;;;;;5018281;28;20072;-63
2022/04/10 10:17:09;;;;;;;7.45;1.52;;;8.80;93.70;;;;;;5018867;28;20056;-68
2022/04/10 10:19:38;;;;;;;8.98;1.88;;;8.90;92.50;;;;;;5015268;28;20911;-62
2022/04/10 10:22:08;;;;;;;8.50;2.20;;;8.90;91.70;;;;;;5014209;28;20073;-62
2022/04/10 10:24:58;;;;;;;6.25;1.70;;;9.10;91.50;;;;;;5037470;28;20033;-63
2022/04/10 10:27:48;;;;;;;10.25;1.58;;;9.30;91.20;;;;;;5025439;28;20128;-64
2022/04/10 10:30:35;;;;;;;10.88;1.83;;;9.50;90.90;;;;;;5022434;28;20494;-63
2022/04/10 10:33:19;;;;;;;7.45;1.85;;;9.50;88.70;;;;;;5016573;28;20547;-63
2022/04/10 10:35:48;;;;;;;;;;;9.60;89.60;;;;;;5027447;28;20044;-63
2022/04/10 10:38:31;;;;;;;5.50;1.10;;;9.60;88.30;;;;;;5028306;28;19970;-62
2022/04/10 10:41:30;;;;;;;11.90;2.85;;;9.70;89.00;;;;;;5014320;28;20049;-62
2022/04/10 10:43:56;;;;;;;9.27;2.15;;;9.40;85.50;;;;;;5027304;28;20048;-62
2022/04/10 10:46:34;;;;;;;10.38;1.95;;;9.40;87.80;;;;;;5020340;28;20048;-67
2022/04/10 10:49:17;;;;;;;10.02;2.53;;;9.30;90.00;;;;;;5020680;28;20515;-61
2022/04/10 10:51:48;;;;;;;7.90;1.60;;;9.10;90.30;;;;;;5012351;28;20042;-61
2022/04/10 10:54:43;;;;;;;8.57;1.80;;;8.90;90.80;;;;;;5030862;28;20037;-67
2022/04/10 10:57:25;;;;;;;7.88;1.80;;;9.00;89.20;;;;;;5023351;28;20065;-62
2022/04/10 10:59:52;;;;;;;9.48;1.58;;;9.20;89.60;;;;;;5020857;28;20048;-67
2022/04/10 11:02:20;;;;;;;7.63;1.50;;;9.50;90.00;;;;;;5038078;28;20072;-65
2022/04/10 11:04:49;;;;;;;10.93;1.45;;;9.60;90.20;;;;;;5020988;28;20048;-63
2022/04/10 11:07:18;;;;;;;8.98;1.77;;;9.60;88.60;;;;;;5018888;28;20041;-62
2022/04/10 11:09:54;;;;;;;6.68;1.52;;;9.50;87.80;;;;;;5009817;28;20124;-63
2022/04/10 11:12:33;;;;;;;7.72;1.52;;;9.50;88.70;;;;;;5014214;28;20099;-63
2022/04/10 11:15:04;;;;;;;7.03;1.30;;;9.80;87.00;;;;;;5021233;28;20491;-62
2022/04/10 11:17:33;;;;;;;5.47;1.45;;;10.10;85.00;;;;;;5018651;28;20102;-61
2022/04/10 11:20:03;;;;;;;6.32;1.50;;;10.40;85.10;;;;;;5000486;28;20044;-61
2022/04/10 11:22:34;;;;;;;7.78;1.50;;;10.10;83.50;;;;;;5015691;28;20043;-68
2022/04/10 11:25:06;;;;;;;10.40;1.90;;;9.70;82.80;;;;;;5017426;28;20051;-61
2022/04/10 11:27:42;;;;;;;8.20;1.20;;;9.40;83.00;;;;;;5022836;28;20064;-62
2022/04/10 11:30:09;;;;;;;7.32;2.05;;;9.20;83.50;;;;;;5022764;28;20535;-62
2022/04/10 11:32:49;;;;;;;7.45;1.40;;;9.20;84.20;;;;;;5018806;28;20041;-67
2022/04/10 11:35:21;;;;;;;5.70;1.20;;;9.50;82.70;;;;;;5020008;28;20045;-61
2022/04/10 11:37:50;;;;;;;11.73;1.95;;;9.40;81.70;;;;;;5019849;28;21180;-62
2022/04/10 11:40:27;;;;;;;8.18;1.58;;;9.40;82.60;;;;;;5017823;28;20200;-62
2022/04/10 11:42:55;;;;;;;8.65;1.58;;;9.70;84.50;;;;;;5036855;28;20041;-63
2022/04/10 11:45:26;;;;;;;5.40;1.15;;;9.90;84.10;;;;;;5011673;28;20041;-62
2022/04/10 11:47:52;;;;;;;6.18;1.55;;;10.30;84.00;;;;;;5014939;28;20053;-64
2022/04/10 11:50:19;;;;;;;5.13;1.23;;;10.70;80.30;;;;;;5019485;28;20593;-61
2022/04/10 11:52:56;;;;;;;8.52;1.52;;;10.50;80.20;;;;;;5018361;28;20137;-67
2022/04/10 11:55:28;;;;;;;5.43;1.00;;;10.50;80.90;;;;;;5005634;28;20106;-62
2022/04/10 11:57:54;;;;;;;8.20;1.80;;;10.50;80.60;;;;;;5014226;28;20177;-61
2022/04/10 12:00:20;;;;;;;6.97;1.13;;;10.50;78.60;;;;;;5003069;28;20049;-63
2022/04/10 12:02:52;;;;;;;5.68;1.38;;;10.70;80.50;;;;;;5008928;28;20862;-61
2022/04/10 12:05:19;;;;;;;5.80;1.38;;;10.60;80.60;;;;;;5012905;28;20111;-66
2022/04/10 12:07:45;;;;;;;4.72;1.10;;;10.50;81.00;;;;;;4984900;28;20060;-62
2022/04/10 12:10:18;;;;;;;6.68;1.50;;;10.10;79.70;;;;;;5026789;28;20044;-62
2022/04/10 12:12:45;;;;;;;4.35;1.45;;;9.90;80.80;;;;;;5013983;28;20120;-63
2022/04/10 12:15:19;;;;;;;7.03;1.15;;;10.20;83.70;;;;;;5014059;28;20072;-61
2022/04/10 12:17:45;;;;;;;5.95;1.48;;;10.20;80.90;;;;;;5017420;28;20123;-65
2022/04/10 12:20:11;;;;;;;4.72;1.00;;;10.40;82.30;;;;;;5005617;28;20059;-62
2022/04/10 12:22:37;;;;;;;6.97;1.30;;;10.60;81.90;;;;;;5018717;28;20053;-61
2022/04/10 12:25:04;;;;;;;4.45;1.30;;;10.80;78.20;;;;;;5040382;28;20048;-62
2022/04/10 12:27:30;;;;;;;7.93;2.25;;;10.50;78.90;;;;;;5028974;28;20057;-63
2022/04/10 12:29:56;;;;;;;8.43;1.42;;;10.90;79.50;;;;;;5015460;28;20679;-69
2022/04/10 12:32:23;;;;;;;8.18;2.03;;;11.10;78.00;;;;;;5027289;28;20041;-65
2022/04/10 12:34:49;;;;;;;8.45;1.77;;;11.10;76.80;;;;;;5032530;28;20037;-63
2022/04/10 12:37:17;;;;;;;7.38;1.25;;;10.60;76.40;;;;;;5028637;28;20040;-62
2022/04/10 12:39:49;;;;;;;8.60;1.92;;;10.80;79.70;;;;;;5018447;28;20143;-62
2022/04/10 12:42:22;;;;;;;9.68;1.80;;;10.70;79.10;;;;;;5018324;28;20474;-63
2022/04/10 12:44:58;;;;;;;6.82;1.75;;;10.10;79.90;;;;;;5014709;28;20049;-64
2022/04/10 12:47:42;;;;;;;5.68;1.30;;;10.10;78.90;;;;;;5036415;28;20079;-62
2022/04/10 12:50:11;;;;;;;6.50;1.80;;;10.50;76.30;;;;;;5013140;28;20474;-61
2022/04/10 12:52:39;;;;;;;4.53;1.75;;;10.60;78.00;;;;;;5042051;28;20076;-66
2022/04/10 12:55:15;;;;;;;4.13;1.08;;;10.90;78.90;;;;;;5023418;28;20557;-64
2022/04/10 12:57:43;;;;;;;4.22;1.08;;;10.70;75.40;;;;;;5031391;28;20732;-64
2022/04/10 13:00:26;;;;;;;8.15;1.52;;;10.70;76.90;;;;;;5031124;28;20060;-61
2022/04/10 13:02:52;;;;;;;4.63;1.00;;;9.90;74.60;;;;;;5011435;28;20056;-61